createdAt,value
2018-11-26T00:01:33.433Z,88.70
2018-11-26T00:04:37.799Z,88.60
2018-11-26T00:07:42.199Z,88.70
2018-11-26T00:11:59.758Z,88.50
2018-11-26T00:15:04.276Z,88.80
2018-11-26T00:18:08.674Z,89.00
2018-11-26T00:21:12.955Z,89.70
2018-11-26T00:24:16.884Z,90.00
2018-11-26T00:27:21.204Z,89.90
2018-11-26T00:30:25.193Z,89.70
2018-11-26T00:33:29.379Z,89.60
2018-11-26T00:36:33.837Z,89.10
2018-11-26T00:39:38.211Z,88.60
2018-11-26T00:42:42.545Z,88.70
2018-11-26T00:45:46.942Z,88.60
2018-11-26T00:48:51.244Z,88.30
2018-11-26T00:51:55.673Z,88.80
2018-11-26T00:54:59.903Z,89.00
2018-11-26T00:58:04.173Z,89.30
2018-11-26T01:01:08.344Z,89.90
2018-11-26T01:04:12.632Z,89.90
2018-11-26T01:07:16.968Z,90.60
2018-11-26T01:10:21.197Z,90.50
2018-11-26T01:13:25.337Z,90.70
2018-11-26T01:16:29.879Z,90.50
2018-11-26T01:19:34.506Z,90.40
2018-11-26T01:22:38.936Z,90.30
2018-11-26T01:25:44.214Z,90.30
2018-11-26T01:28:48.377Z,90.20
2018-11-26T01:31:52.424Z,90.10
2018-11-26T01:34:56.734Z,90.20
2018-11-26T01:38:00.901Z,90.30
2018-11-26T01:41:05.370Z,90.50
2018-11-26T01:44:09.631Z,90.40
2018-11-26T01:47:13.771Z,90.70
2018-11-26T01:50:18.306Z,90.60
2018-11-26T01:53:22.784Z,90.80
2018-11-26T01:56:27.188Z,90.80
2018-11-26T01:59:31.533Z,90.70
2018-11-26T02:02:35.943Z,90.60
2018-11-26T02:05:40.248Z,90.60
2018-11-26T02:08:44.590Z,90.40
2018-11-26T02:11:49.594Z,90.50
2018-11-26T02:14:53.923Z,90.50
2018-11-26T02:17:58.067Z,90.50
2018-11-26T02:21:02.230Z,90.50
2018-11-26T02:24:06.484Z,90.50
2018-11-26T02:27:10.578Z,90.40
2018-11-26T02:30:14.779Z,90.50
2018-11-26T02:33:19.009Z,90.50
2018-11-26T02:36:23.278Z,90.60
2018-11-26T02:39:27.583Z,90.50
2018-11-26T02:42:31.907Z,90.30
2018-11-26T02:45:36.238Z,90.40
2018-11-26T02:48:40.680Z,90.40
2018-11-26T02:51:45.092Z,90.30
2018-11-26T02:54:49.246Z,90.40
2018-11-26T02:57:53.639Z,90.30
2018-11-26T03:00:58.406Z,90.20
2018-11-26T03:04:02.910Z,90.40
2018-11-26T03:07:07.288Z,90.60
2018-11-26T03:10:11.654Z,90.40
2018-11-26T03:13:16.044Z,90.70
2018-11-26T03:16:20.373Z,90.70
2018-11-26T03:19:24.658Z,90.80
2018-11-26T03:22:29.082Z,90.70
2018-11-26T03:25:33.410Z,90.60
2018-11-26T03:28:38.282Z,90.60
2018-11-26T03:31:44.185Z,90.60
2018-11-26T03:34:48.670Z,90.60
2018-11-26T03:37:52.818Z,90.50
2018-11-26T03:40:57.171Z,90.60
2018-11-26T03:44:01.512Z,90.80
2018-11-26T03:47:06.147Z,91.10
2018-11-26T03:50:10.928Z,91.10
2018-11-26T03:53:15.447Z,91.20
2018-11-26T03:56:19.744Z,91.00
2018-11-26T03:59:25.033Z,91.30
2018-11-26T04:02:29.282Z,91.30
2018-11-26T04:05:33.523Z,91.30
2018-11-26T04:08:37.966Z,91.30
2018-11-26T04:11:42.299Z,91.20
2018-11-26T04:14:46.540Z,91.10
2018-11-26T04:17:51.037Z,91.20
2018-11-26T04:20:55.336Z,91.20
2018-11-26T04:23:59.715Z,91.30
2018-11-26T04:27:04.268Z,91.50
2018-11-26T04:30:10.098Z,91.40
2018-11-26T04:33:14.343Z,91.40
2018-11-26T04:36:18.667Z,91.40
2018-11-26T04:39:22.970Z,91.60
2018-11-26T04:42:27.318Z,91.40
2018-11-26T04:45:31.784Z,91.50
2018-11-26T04:48:36.140Z,91.50
2018-11-26T04:51:40.599Z,91.60
2018-11-26T04:54:44.973Z,91.70
2018-11-26T04:57:49.342Z,91.90
2018-11-26T05:00:53.706Z,91.70
2018-11-26T05:03:57.839Z,91.70
2018-11-26T05:07:02.070Z,91.60
2018-11-26T05:10:07.981Z,91.80
2018-11-26T05:13:12.254Z,91.90
2018-11-26T05:16:16.486Z,91.80
2018-11-26T05:19:20.793Z,91.70
2018-11-26T05:22:25.110Z,91.80
2018-11-26T05:25:29.497Z,91.80
2018-11-26T05:28:33.892Z,91.80
2018-11-26T05:31:38.147Z,92.00
2018-11-26T05:34:42.483Z,92.10
2018-11-26T05:37:46.679Z,91.90
2018-11-26T05:40:50.854Z,92.00
2018-11-26T05:43:55.089Z,91.90
2018-11-26T05:46:59.397Z,91.90
2018-11-26T05:50:03.739Z,91.90
2018-11-26T05:53:08.167Z,91.90
2018-11-26T05:56:12.573Z,91.90
2018-11-26T05:59:16.970Z,92.20
2018-11-26T06:02:22.257Z,92.00
2018-11-26T06:05:26.600Z,91.90
2018-11-26T06:08:30.954Z,91.90
2018-11-26T06:11:35.248Z,92.10
2018-11-26T06:14:39.923Z,92.20
2018-11-26T06:17:44.317Z,91.90
2018-11-26T06:20:48.611Z,92.00
2018-11-26T06:23:52.949Z,92.60
2018-11-26T06:26:57.150Z,92.90
2018-11-26T06:30:01.400Z,92.00
2018-11-26T06:33:05.753Z,92.00
2018-11-26T06:36:10.121Z,92.00
2018-11-26T06:39:14.529Z,92.00
2018-11-26T06:42:18.859Z,92.00
2018-11-26T06:45:23.692Z,92.00
2018-11-26T06:48:28.112Z,91.80
2018-11-26T06:51:32.727Z,91.70
2018-11-26T06:54:37.137Z,91.80
2018-11-26T06:57:41.583Z,91.70
2018-11-26T07:00:45.934Z,92.00
2018-11-26T07:03:50.280Z,91.70
2018-11-26T07:06:54.492Z,91.70
2018-11-26T07:09:58.577Z,92.00
2018-11-26T07:13:02.758Z,92.00
2018-11-26T07:16:07.099Z,92.10
2018-11-26T07:19:11.431Z,91.80
2018-11-26T07:22:15.804Z,91.60
2018-11-26T07:25:21.237Z,91.80
2018-11-26T07:28:25.589Z,91.80
2018-11-26T07:31:29.962Z,92.10
2018-11-26T07:34:34.389Z,91.80
2018-11-26T07:37:38.648Z,91.80
2018-11-26T07:40:42.888Z,91.80
2018-11-26T07:43:47.756Z,91.70
2018-11-26T07:46:52.154Z,91.50
2018-11-26T07:49:56.954Z,91.10
2018-11-26T07:53:01.410Z,91.30
2018-11-26T07:56:06.624Z,91.40
2018-11-26T07:59:10.821Z,91.00
2018-11-26T08:02:15.035Z,90.70
2018-11-26T08:05:21.205Z,90.90
2018-11-26T08:08:25.415Z,91.10
2018-11-26T08:11:29.745Z,90.80
2018-11-26T08:14:34.106Z,91.00
2018-11-26T08:17:39.123Z,91.20
2018-11-26T08:20:43.570Z,91.20
2018-11-26T08:23:48.046Z,91.10
2018-11-26T08:26:52.433Z,90.60
2018-11-26T08:29:56.690Z,90.60
2018-11-26T08:33:02.503Z,90.60
2018-11-26T08:36:12.080Z,90.60
2018-11-26T08:39:18.896Z,90.80
2018-11-26T08:42:27.010Z,90.70
2018-11-26T08:45:37.934Z,90.80
2018-11-26T08:48:47.318Z,90.60
2018-11-26T08:51:51.536Z,90.80
2018-11-26T08:54:56.373Z,90.60
2018-11-26T08:58:01.248Z,90.50
2018-11-26T09:01:11.201Z,90.20
2018-11-26T09:04:24.300Z,90.20
2018-11-26T09:07:28.835Z,90.60
2018-11-26T09:10:33.267Z,90.20
2018-11-26T09:13:37.469Z,90.20
2018-11-26T09:16:41.924Z,88.80
2018-11-26T09:19:46.192Z,88.90
2018-11-26T09:22:50.349Z,88.50
2018-11-26T09:25:54.599Z,87.40
2018-11-26T09:28:58.843Z,87.00
2018-11-26T09:32:03.094Z,87.10
2018-11-26T09:35:08.283Z,87.60
2018-11-26T09:38:13.115Z,87.10
2018-11-26T09:41:16.960Z,86.50
2018-11-26T09:44:21.218Z,85.30
2018-11-26T09:47:25.876Z,85.80
2018-11-26T09:50:30.401Z,85.80
2018-11-26T09:53:34.737Z,85.10
2018-11-26T09:56:39.022Z,85.20
2018-11-26T09:59:43.323Z,86.00
2018-11-26T10:02:52.072Z,84.90
2018-11-26T10:05:56.354Z,85.00
2018-11-26T10:09:00.678Z,85.70
2018-11-26T10:12:05.040Z,85.30
2018-11-26T10:15:12.887Z,85.00
2018-11-26T10:18:17.154Z,85.00
2018-11-26T10:21:21.246Z,85.10
2018-11-26T10:24:25.578Z,85.00
2018-11-26T10:27:29.855Z,85.10
2018-11-26T10:30:34.190Z,85.00
2018-11-26T10:33:38.348Z,85.00
2018-11-26T10:36:42.411Z,85.50
2018-11-26T10:39:46.625Z,86.10
2018-11-26T10:42:50.602Z,85.60
2018-11-26T10:45:54.521Z,85.70
2018-11-26T10:48:58.469Z,85.10
2018-11-26T10:52:02.413Z,85.60
2018-11-26T10:55:09.932Z,84.90
2018-11-26T10:58:13.850Z,84.30
2018-11-26T11:01:23.017Z,84.80
2018-11-26T11:04:27.013Z,85.10
2018-11-26T11:07:31.066Z,84.90
2018-11-26T11:10:41.343Z,85.00
2018-11-26T11:13:45.238Z,83.90
2018-11-26T11:16:49.629Z,84.90
2018-11-26T11:19:53.966Z,84.80
2018-11-26T11:22:58.119Z,84.30
2018-11-26T11:26:02.434Z,84.10
2018-11-26T11:29:06.697Z,84.40
2018-11-26T11:32:10.932Z,84.30
2018-11-26T11:35:15.598Z,84.10
2018-11-26T11:38:19.567Z,83.80
2018-11-26T11:41:24.050Z,83.60
2018-11-26T11:44:28.065Z,84.00
2018-11-26T11:47:32.003Z,83.70
2018-11-26T11:50:36.193Z,83.80
2018-11-26T11:53:40.423Z,83.00
2018-11-26T11:56:44.920Z,83.90
2018-11-26T11:59:49.352Z,83.40
2018-11-26T12:02:53.855Z,83.90
2018-11-26T12:05:58.205Z,84.10
2018-11-26T12:09:02.583Z,83.50
2018-11-26T12:12:06.956Z,83.00
2018-11-26T12:15:15.447Z,83.10
2018-11-26T12:18:19.900Z,84.00
2018-11-26T12:21:24.235Z,84.30
2018-11-26T12:24:28.707Z,84.10
2018-11-26T12:27:32.979Z,83.40
2018-11-26T12:30:39.723Z,83.30
2018-11-26T12:33:44.943Z,84.70
2018-11-26T12:36:50.057Z,84.70
2018-11-26T12:39:54.592Z,85.00
2018-11-26T12:43:00.266Z,84.90
2018-11-26T12:46:04.708Z,84.90
2018-11-26T12:49:08.996Z,84.60
2018-11-26T12:52:13.294Z,85.00
2018-11-26T12:55:18.232Z,84.20
2018-11-26T12:58:22.601Z,84.80
2018-11-26T13:01:27.092Z,84.50
2018-11-26T13:04:31.528Z,84.60
2018-11-26T13:07:35.951Z,84.90
2018-11-26T13:10:40.316Z,84.90
2018-11-26T13:13:45.035Z,83.00
2018-11-26T13:16:49.383Z,82.90
2018-11-26T13:19:53.777Z,83.40
2018-11-26T13:22:58.311Z,83.80
2018-11-26T13:26:02.678Z,83.80
2018-11-26T13:29:07.388Z,84.00
2018-11-26T13:32:11.949Z,83.80
2018-11-26T13:35:17.049Z,84.30
2018-11-26T13:38:21.494Z,84.70
2018-11-26T13:41:25.925Z,84.70
2018-11-26T13:44:30.266Z,84.60
2018-11-26T13:47:34.865Z,84.40
2018-11-26T13:50:40.599Z,85.20
2018-11-26T13:53:44.570Z,85.30
2018-11-26T13:56:48.539Z,85.70
2018-11-26T13:59:53.330Z,85.20
2018-11-26T14:02:57.223Z,86.00
2018-11-26T14:06:01.625Z,86.30
2018-11-26T14:09:08.892Z,86.50
2018-11-26T14:12:13.195Z,86.50
2018-11-26T14:15:17.727Z,87.10
2018-11-26T14:18:21.980Z,86.60
2018-11-26T14:21:26.172Z,85.70
2018-11-26T14:24:30.745Z,84.70
2018-11-26T14:27:35.145Z,84.90
2018-11-26T14:30:39.517Z,84.80
2018-11-26T14:33:43.732Z,85.20
2018-11-26T14:36:49.037Z,85.50
2018-11-26T14:39:53.271Z,85.90
2018-11-26T14:42:57.796Z,85.20
2018-11-26T14:46:02.298Z,85.30
2018-11-26T14:49:06.490Z,85.70
2018-11-26T14:52:10.795Z,85.40
2018-11-26T14:55:22.773Z,85.70
2018-11-26T14:58:26.988Z,86.40
2018-11-26T15:01:31.151Z,86.90
2018-11-26T15:04:35.435Z,86.80
2018-11-26T15:07:39.456Z,87.50
2018-11-26T15:10:43.441Z,86.70
2018-11-26T15:13:47.692Z,86.90
2018-11-26T15:16:51.968Z,86.40
2018-11-26T15:19:56.421Z,85.50
2018-11-26T15:23:01.108Z,85.70
2018-11-26T15:26:06.783Z,86.40
2018-11-26T15:29:11.237Z,87.00
2018-11-26T15:32:15.681Z,85.80
2018-11-26T15:35:20.980Z,87.40
2018-11-26T15:38:25.453Z,87.60
2018-11-26T15:41:29.782Z,87.50
2018-11-26T15:44:34.203Z,86.40
2018-11-26T15:47:38.822Z,86.50
2018-11-26T15:50:43.333Z,86.50
2018-11-26T15:53:47.729Z,86.20
2018-11-26T15:56:52.102Z,87.20
2018-11-26T15:59:56.350Z,86.70
2018-11-26T16:03:00.675Z,85.50
2018-11-26T16:06:05.015Z,86.10
2018-11-26T16:09:10.546Z,85.20
2018-11-26T16:12:15.012Z,86.10
2018-11-26T16:15:21.782Z,85.30
2018-11-26T16:18:26.180Z,85.10
2018-11-26T16:21:30.453Z,85.20
2018-11-26T16:24:34.926Z,85.80
2018-11-26T16:27:39.426Z,86.50
2018-11-26T16:30:43.742Z,86.50
2018-11-26T16:33:48.063Z,86.80
2018-11-26T16:36:52.356Z,86.10
2018-11-26T16:39:56.869Z,85.80
2018-11-26T16:43:01.050Z,86.50
2018-11-26T16:46:05.538Z,86.70
2018-11-26T16:49:09.613Z,86.50
2018-11-26T16:52:13.853Z,85.90
2018-11-26T16:55:18.566Z,85.80
2018-11-26T16:58:23.175Z,85.80
2018-11-26T17:01:27.761Z,85.30
2018-11-26T17:04:32.094Z,85.70
2018-11-26T17:07:36.459Z,85.50
2018-11-26T17:10:42.864Z,84.80
2018-11-26T17:13:47.360Z,84.90
2018-11-26T17:16:51.369Z,85.00
2018-11-26T17:19:55.997Z,84.30
2018-11-26T17:23:00.367Z,84.10
2018-11-26T17:26:04.940Z,84.60
2018-11-26T17:29:10.400Z,85.10
2018-11-26T17:32:15.259Z,84.50
2018-11-26T17:35:19.737Z,84.00
2018-11-26T17:38:24.216Z,83.80
2018-11-26T17:41:28.841Z,83.70
2018-11-26T17:44:33.309Z,83.10
2018-11-26T17:47:38.651Z,82.60
2018-11-26T17:50:44.100Z,82.90
2018-11-26T17:53:48.663Z,82.90
2018-11-26T17:56:53.049Z,82.10
2018-11-26T17:59:57.333Z,81.80
2018-11-26T18:03:01.592Z,82.50
2018-11-26T18:06:05.737Z,82.50
2018-11-26T18:09:11.824Z,81.80
2018-11-26T18:12:16.304Z,81.90
2018-11-26T18:15:20.894Z,82.10
2018-11-26T18:18:25.032Z,81.80
2018-11-26T18:21:29.605Z,81.70
2018-11-26T18:24:34.047Z,81.70
2018-11-26T18:27:38.860Z,81.30
2018-11-26T18:30:45.138Z,81.60
2018-11-26T18:33:49.875Z,81.70
2018-11-26T18:36:54.133Z,81.00
2018-11-26T18:39:58.520Z,81.80
2018-11-26T18:43:02.834Z,82.20
2018-11-26T18:46:07.347Z,82.40
2018-11-26T18:49:11.679Z,82.20
2018-11-26T18:52:16.076Z,82.30
2018-11-26T18:55:20.617Z,81.10
2018-11-26T18:58:25.126Z,80.70
2018-11-26T19:01:29.582Z,81.20
2018-11-26T19:04:33.962Z,81.40
2018-11-26T19:07:38.386Z,81.60
2018-11-26T19:10:42.685Z,81.40
2018-11-26T19:13:55.526Z,82.40
2018-11-26T19:17:00.379Z,82.80
2018-11-26T19:20:05.208Z,82.20
2018-11-26T19:23:09.548Z,81.90
2018-11-26T19:26:14.209Z,81.70
2018-11-26T19:29:18.584Z,81.50
2018-11-26T19:32:22.901Z,82.60
2018-11-26T19:35:27.275Z,81.40
2018-11-26T19:38:31.938Z,81.70
2018-11-26T19:41:36.461Z,81.90
2018-11-26T19:44:41.965Z,81.70
2018-11-26T19:47:46.253Z,81.60
2018-11-26T19:50:50.849Z,81.60
2018-11-26T19:53:55.499Z,81.10
2018-11-26T19:57:00.035Z,80.60
2018-11-26T20:00:05.436Z,80.80
2018-11-26T20:03:29.294Z,80.60
2018-11-26T20:06:33.802Z,80.90
2018-11-26T20:09:38.066Z,81.00
2018-11-26T20:12:42.411Z,81.30
2018-11-26T20:15:47.102Z,81.80
2018-11-26T20:18:51.562Z,82.70
2018-11-26T20:21:57.101Z,83.70
2018-11-26T20:25:01.536Z,84.00
2018-11-26T20:28:06.148Z,84.00
2018-11-26T20:31:10.990Z,84.50
2018-11-26T20:34:15.532Z,84.80
2018-11-26T20:37:20.060Z,84.90
2018-11-26T20:40:24.862Z,85.20
2018-11-26T20:43:29.469Z,85.80
2018-11-26T20:46:34.110Z,86.70
2018-11-26T20:49:38.450Z,87.40
2018-11-26T20:52:43.012Z,87.70
2018-11-26T20:55:47.813Z,88.60
2018-11-26T20:58:52.077Z,87.90
2018-11-26T21:01:59.984Z,87.90
2018-11-26T21:05:04.533Z,88.30
2018-11-26T21:08:09.500Z,88.80
2018-11-26T21:11:14.101Z,88.80
2018-11-26T21:14:21.427Z,88.70
2018-11-26T21:17:22.920Z,88.30
2018-11-26T21:20:31.241Z,88.40
2018-11-26T21:23:36.476Z,88.20
2018-11-26T21:26:40.879Z,88.00
2018-11-26T21:29:45.430Z,88.00
2018-11-26T21:32:50.801Z,88.70
2018-11-26T21:35:55.578Z,89.60
2018-11-26T21:38:59.866Z,90.00
2018-11-26T21:42:04.194Z,89.40
2018-11-26T21:45:12.176Z,89.40
2018-11-26T21:48:16.637Z,89.50
2018-11-26T21:51:21.385Z,89.40
2018-11-26T21:54:25.808Z,90.20
2018-11-26T21:57:31.454Z,90.10
2018-11-26T22:00:36.254Z,90.10
2018-11-26T22:03:40.600Z,90.20
2018-11-26T22:06:45.104Z,90.10
2018-11-26T22:09:49.314Z,90.20
2018-11-26T22:12:54.664Z,90.00
2018-11-26T22:15:59.433Z,89.80
2018-11-26T22:19:03.932Z,88.40
2018-11-26T22:22:08.192Z,88.00
2018-11-26T22:25:12.858Z,88.40
2018-11-26T22:28:17.203Z,88.80
2018-11-26T22:31:21.441Z,88.60
2018-11-26T22:34:26.049Z,88.50
2018-11-26T22:37:30.655Z,87.90
2018-11-26T22:40:34.917Z,88.00
2018-11-26T22:43:39.592Z,88.50
2018-11-26T22:46:43.943Z,88.60
2018-11-26T22:49:48.221Z,88.10
2018-11-26T22:52:52.733Z,87.70
2018-11-26T22:55:57.105Z,87.20
2018-11-26T22:59:01.308Z,87.00
2018-11-26T23:02:05.962Z,87.00
2018-11-26T23:05:10.381Z,87.40
2018-11-26T23:08:14.696Z,88.10
2018-11-26T23:11:18.806Z,88.20
2018-11-26T23:14:23.167Z,88.60
2018-11-26T23:17:27.632Z,88.80
2018-11-26T23:20:32.149Z,88.70
2018-11-26T23:23:37.374Z,88.80
2018-11-26T23:26:41.684Z,88.80
2018-11-26T23:29:46.280Z,88.90
2018-11-26T23:32:54.492Z,88.80
2018-11-26T23:35:58.750Z,88.80
2018-11-26T23:39:03.415Z,88.70
2018-11-26T23:42:07.797Z,88.90
2018-11-26T23:45:14.977Z,89.40
2018-11-26T23:48:19.241Z,88.10
2018-11-26T23:51:24.012Z,88.60
2018-11-26T23:54:28.307Z,84.60
2018-11-26T23:57:32.673Z,88.40
